DPO weather

Devonport Airport
Devonport, Tasmania, Australia

Public forecast

Using degrees Celsius for public forecast. Weather courtesy of forecast.io.

Closest aviation weather report (METAR) to Devonport Airport

Closest report is Launceston Airport, 41.9 nm (77.6 km) ESE. Retrieved 2020/01/29 04:30 UTC (0 seconds ago):

YMLT 290430Z AUTO 34018KT 9999 // NCD 26/13 Q1012 RF000/0000

Closest aviation forecast (TAF) to Devonport Airport

Forecast is more than 6 hours old.

Closest forecast is Launceston Airport, 41.9 nm (77.6 km) ESE. Retrieved 2020/01/28 18:36 UTC (10 hours ago):

TAF YMLT 281723Z 2818/2918 34006KT 9999 SCT010 FM282200 33012KT 9999 SCT020 FM290200 33016G26KT 9999 SCT040 FM290900 35012KT CAVOK FM291300 35012KT 9999 SCT010